Muren, Indiana
Current Conditions -  °F | °C
As of 10:15 AM on Wednesday 26 Nov 2014 (Local Time) from KHNB Reporting Station
Clear Clear  
Wind Chill: 34°   Ceiling: Unl
Heat Index: 34°   Visibility: 9mi
Dew Point: 27°   Wind: 3mph
Humidity: 75%   Direction: 180°S
Pressure: 30.14"   Gusts: NA
Location:  38.3488°N, 87.2217°W
Report Text: KHNB 261615Z AUTO 18003KT 9SM CLR 01/M03 A3014 RMK AO1
Loading
Personal Weather Stations






























Interactive Weather Map New forecast layout! Learn more

10-Day Weather Forecast

Advertisements
Track Severe Weather on mobile